createdAt,value
2024-03-12T00:00:53.626Z,23.04
2024-03-12T00:01:53.593Z,23.05
2024-03-12T00:02:53.596Z,23.05
2024-03-12T00:03:53.657Z,23.07
2024-03-12T00:04:53.705Z,23.05
2024-03-12T00:05:53.736Z,23.03
2024-03-12T00:06:53.853Z,23.07
2024-03-12T00:07:53.860Z,23.05
2024-03-12T00:08:53.886Z,23.04
2024-03-12T00:09:53.951Z,23.05
2024-03-12T00:10:54.030Z,23.05
2024-03-12T00:11:54.034Z,23.04
2024-03-12T00:12:54.123Z,23.05
2024-03-12T00:13:54.128Z,23.05
2024-03-12T00:14:54.144Z,23.04
2024-03-12T00:15:54.278Z,23.05
2024-03-12T00:16:54.255Z,23.05
2024-03-12T00:17:54.312Z,23.04
2024-03-12T00:18:54.366Z,23.04
2024-03-12T00:19:54.360Z,23.04
2024-03-12T00:20:54.405Z,23.03
2024-03-12T00:21:54.481Z,23.05
2024-03-12T00:22:54.469Z,23.01
2024-03-12T00:23:54.543Z,23.04
2024-03-12T00:24:54.608Z,23.05
2024-03-12T00:25:54.603Z,23.05
2024-03-12T00:26:54.689Z,23.04
2024-03-12T00:27:54.706Z,23.04
2024-03-12T00:28:54.726Z,23.03
2024-03-12T00:29:54.794Z,23.04
2024-03-12T00:30:54.874Z,23.05
2024-03-12T00:31:54.892Z,23.03
2024-03-12T00:32:55.011Z,23.04
2024-03-12T00:33:55.247Z,23.03
2024-03-12T00:34:55.074Z,23.03
2024-03-12T00:35:55.132Z,23.04
2024-03-12T00:36:55.206Z,23.03
2024-03-12T00:37:55.226Z,23.04
2024-03-12T00:38:55.289Z,23.03
2024-03-12T00:39:55.378Z,23.04
2024-03-12T00:40:55.349Z,23.03
2024-03-12T00:41:55.403Z,23.03
2024-03-12T00:42:55.482Z,23.03
2024-03-12T00:43:55.509Z,23.05
2024-03-12T00:44:55.550Z,23.04
2024-03-12T00:45:55.631Z,23.03
2024-03-12T00:46:55.607Z,23.04
2024-03-12T00:47:55.745Z,23.03
2024-03-12T00:48:55.723Z,23.01
2024-03-12T00:49:58.544Z,23.03
2024-03-12T00:50:55.695Z,23.03
2024-03-12T00:51:55.764Z,23.01
2024-03-12T00:52:55.698Z,23.03
2024-03-12T00:53:55.702Z,23.01
2024-03-12T00:54:55.776Z,23.01
2024-03-12T00:55:55.701Z,23.01
2024-03-12T00:56:55.715Z,23.00
2024-03-12T00:57:55.781Z,23.03
2024-03-12T00:58:55.706Z,23.03
2024-03-12T00:59:55.708Z,23.03
2024-03-12T01:00:55.762Z,23.01
2024-03-12T01:01:55.762Z,23.04
2024-03-12T01:02:55.864Z,22.98
2024-03-12T01:03:55.842Z,23.01
2024-03-12T01:04:55.714Z,23.01
2024-03-12T01:05:55.724Z,23.01
2024-03-12T01:06:55.761Z,23.03
2024-03-12T01:07:55.728Z,23.01
2024-03-12T01:08:55.730Z,23.01
2024-03-12T01:09:55.790Z,23.01
2024-03-12T01:10:55.753Z,23.01
2024-03-12T01:11:55.729Z,23.01
2024-03-12T01:12:55.782Z,23.01
2024-03-12T01:13:55.742Z,23.01
2024-03-12T01:14:55.742Z,23.00
2024-03-12T01:15:55.764Z,23.01
2024-03-12T01:16:55.748Z,23.04
2024-03-12T01:17:55.754Z,23.01
2024-03-12T01:18:55.771Z,23.03
2024-03-12T01:19:55.741Z,22.98
2024-03-12T01:20:55.755Z,23.00
2024-03-12T01:21:55.862Z,23.01
2024-03-12T01:22:56.145Z,23.01
2024-03-12T01:23:55.775Z,23.00
2024-03-12T01:24:55.800Z,23.01
2024-03-12T01:25:55.757Z,23.01
2024-03-12T01:26:55.756Z,23.03
2024-03-12T01:27:55.795Z,23.01
2024-03-12T01:28:55.778Z,23.01
2024-03-12T01:29:55.771Z,23.03
2024-03-12T01:30:55.811Z,23.03
2024-03-12T01:31:55.770Z,22.98
2024-03-12T01:32:56.003Z,23.00
2024-03-12T01:33:55.814Z,23.03
2024-03-12T01:34:55.776Z,23.01
2024-03-12T01:35:55.775Z,23.01
2024-03-12T01:36:55.817Z,23.01
2024-03-12T01:37:55.798Z,22.98
2024-03-12T01:38:55.939Z,23.00
2024-03-12T01:39:55.848Z,23.00
2024-03-12T01:40:55.866Z,23.00
2024-03-12T01:41:55.873Z,23.00
2024-03-12T01:42:55.921Z,23.01
2024-03-12T01:43:55.920Z,23.01
2024-03-12T01:44:55.955Z,23.01
2024-03-12T01:45:56.021Z,23.01
2024-03-12T01:46:56.016Z,22.98
2024-03-12T01:47:56.207Z,23.00
2024-03-12T01:48:56.121Z,23.00
2024-03-12T01:49:56.121Z,23.01
2024-03-12T01:50:56.128Z,23.01
2024-03-12T01:51:56.213Z,23.01
2024-03-12T01:52:56.199Z,23.00
2024-03-12T01:53:56.223Z,23.00
2024-03-12T01:54:56.306Z,22.98
2024-03-12T01:55:56.286Z,22.98
2024-03-12T01:56:56.305Z,23.00
2024-03-12T01:57:56.357Z,23.00
2024-03-12T01:58:56.360Z,23.00
2024-03-12T01:59:56.381Z,23.00
2024-03-12T02:00:56.523Z,22.98
2024-03-12T02:01:56.486Z,22.98
2024-03-12T02:02:56.452Z,23.00
2024-03-12T02:03:56.506Z,22.98
2024-03-12T02:04:56.518Z,23.00
2024-03-12T02:05:56.577Z,23.00
2024-03-12T02:06:56.671Z,22.98
2024-03-12T02:07:56.594Z,22.97
2024-03-12T02:08:56.596Z,23.00
2024-03-12T02:09:56.665Z,22.98
2024-03-12T02:10:56.643Z,23.00
2024-03-12T02:11:56.630Z,22.97
2024-03-12T02:12:56.720Z,22.98
2024-03-12T02:13:56.657Z,22.97
2024-03-12T02:14:56.683Z,22.95
2024-03-12T02:15:56.703Z,23.00
2024-03-12T02:16:56.682Z,23.00
2024-03-12T02:17:56.734Z,22.97
2024-03-12T02:18:56.773Z,22.98
2024-03-12T02:19:56.744Z,22.98
2024-03-12T02:20:56.753Z,22.98
2024-03-12T02:21:56.821Z,22.98
2024-03-12T02:22:56.960Z,22.98
2024-03-12T02:23:56.790Z,22.98
2024-03-12T02:24:56.844Z,22.98
2024-03-12T02:25:56.845Z,22.98
2024-03-12T02:26:56.831Z,22.97
2024-03-12T02:27:56.882Z,22.97
2024-03-12T02:28:56.863Z,22.98
2024-03-12T02:29:56.916Z,22.97
2024-03-12T02:30:56.961Z,22.97
2024-03-12T02:31:56.883Z,22.97
2024-03-12T02:32:56.958Z,22.97
2024-03-12T02:33:56.933Z,22.98
2024-03-12T02:34:56.908Z,22.97
2024-03-12T02:35:56.920Z,22.95
2024-03-12T02:36:56.987Z,22.97
2024-03-12T02:37:56.934Z,22.95
2024-03-12T02:38:56.953Z,22.97
2024-03-12T02:39:56.999Z,22.98
2024-03-12T02:40:56.987Z,23.00
2024-03-12T02:41:57.005Z,22.97
2024-03-12T02:42:57.087Z,22.97
2024-03-12T02:43:57.047Z,23.00
2024-03-12T02:44:57.050Z,23.00
2024-03-12T02:45:57.120Z,22.94
2024-03-12T02:46:57.072Z,22.97
2024-03-12T02:47:57.166Z,22.97
2024-03-12T02:48:57.171Z,22.95
2024-03-12T02:49:57.105Z,22.98
2024-03-12T02:50:57.123Z,22.97
2024-03-12T02:51:57.130Z,22.97
2024-03-12T02:52:57.129Z,22.98
2024-03-12T02:53:57.168Z,22.98
2024-03-12T02:54:57.246Z,22.97
2024-03-12T02:55:57.197Z,22.95
2024-03-12T02:56:57.257Z,22.97
2024-03-12T02:57:57.333Z,22.95
2024-03-12T02:58:57.234Z,22.97
2024-03-12T02:59:57.246Z,22.97
2024-03-12T03:00:57.322Z,22.95
2024-03-12T03:01:57.336Z,22.95
2024-03-12T03:02:57.317Z,22.94
2024-03-12T03:03:57.403Z,22.95
2024-03-12T03:04:57.392Z,22.94
2024-03-12T03:05:57.372Z,22.94
2024-03-12T03:06:57.406Z,22.95
2024-03-12T03:07:57.405Z,22.95
2024-03-12T03:08:57.415Z,22.94
2024-03-12T03:09:57.455Z,22.94
2024-03-12T03:10:57.428Z,22.95
2024-03-12T03:11:57.439Z,22.97
2024-03-12T03:12:57.504Z,22.94
2024-03-12T03:13:57.500Z,22.97
2024-03-12T03:14:57.517Z,22.97
2024-03-12T03:15:57.549Z,22.93
2024-03-12T03:16:57.535Z,22.95
2024-03-12T03:17:57.589Z,22.95
2024-03-12T03:18:57.579Z,22.95
2024-03-12T03:19:57.582Z,22.95
2024-03-12T03:20:57.674Z,22.95
2024-03-12T03:21:57.650Z,22.97
2024-03-12T03:22:57.629Z,22.95
2024-03-12T03:23:57.630Z,22.95
2024-03-12T03:24:57.673Z,22.97
2024-03-12T03:25:57.644Z,22.95
2024-03-12T03:26:57.668Z,22.94
2024-03-12T03:27:57.694Z,22.97
2024-03-12T03:28:57.698Z,22.94
2024-03-12T03:29:57.689Z,22.95
2024-03-12T03:30:58.241Z,22.94
2024-03-12T03:31:57.702Z,22.93
2024-03-12T03:32:57.762Z,22.95
2024-03-12T03:33:57.772Z,22.93
2024-03-12T03:34:57.738Z,22.95
2024-03-12T03:35:57.757Z,22.94
2024-03-12T03:36:57.846Z,22.94
2024-03-12T03:37:57.782Z,22.93
2024-03-12T03:38:57.800Z,22.95
2024-03-12T03:39:57.824Z,22.95
2024-03-12T03:40:57.823Z,22.94
2024-03-12T03:41:57.835Z,22.93
2024-03-12T03:42:58.150Z,22.94
2024-03-12T03:43:57.857Z,22.93
2024-03-12T03:44:57.873Z,22.93
2024-03-12T03:45:57.942Z,22.93
2024-03-12T03:46:57.882Z,22.93
2024-03-12T03:47:57.953Z,22.94
2024-03-12T03:48:58.255Z,22.95
2024-03-12T03:49:57.910Z,22.94
2024-03-12T03:50:57.928Z,22.94
2024-03-12T03:51:57.979Z,22.93
2024-03-12T03:52:57.942Z,22.91
2024-03-12T03:53:57.956Z,22.93
2024-03-12T03:54:58.022Z,22.94
2024-03-12T03:55:57.978Z,22.93
2024-03-12T03:56:57.975Z,22.93
2024-03-12T03:57:58.034Z,22.94
2024-03-12T03:58:58.008Z,22.94
2024-03-12T03:59:58.078Z,22.93
2024-03-12T04:00:58.093Z,22.94
2024-03-12T04:01:58.070Z,22.94
2024-03-12T04:02:58.051Z,22.93
2024-03-12T04:03:58.101Z,22.93
2024-03-12T04:04:58.074Z,22.93
2024-03-12T04:05:58.065Z,22.93
2024-03-12T04:06:58.108Z,22.91
2024-03-12T04:07:58.086Z,22.94
2024-03-12T04:08:58.087Z,22.93
2024-03-12T04:09:58.136Z,22.93
2024-03-12T04:10:58.128Z,22.93
2024-03-12T04:11:58.106Z,22.94
2024-03-12T04:12:58.220Z,22.93
2024-03-12T04:13:58.121Z,22.90
2024-03-12T04:14:58.143Z,22.93
2024-03-12T04:15:58.188Z,22.91
2024-03-12T04:16:58.165Z,22.93
2024-03-12T04:18:05.372Z,22.89
2024-03-12T04:19:05.351Z,22.90
2024-03-12T04:20:05.327Z,22.91
2024-03-12T04:21:05.351Z,22.93
2024-03-12T04:22:05.449Z,22.91
2024-03-12T04:23:05.361Z,22.90
2024-03-12T04:24:05.348Z,22.90
2024-03-12T04:25:05.407Z,22.93
2024-03-12T04:26:05.353Z,22.89
2024-03-12T04:27:05.344Z,22.91
2024-03-12T04:28:05.374Z,22.90
2024-03-12T04:29:05.362Z,22.93
2024-03-12T04:30:05.356Z,22.91
2024-03-12T04:31:12.739Z,22.87
2024-03-12T04:32:12.540Z,22.90
2024-03-12T04:33:12.663Z,22.87
2024-03-12T04:34:12.578Z,22.89
2024-03-12T04:35:12.531Z,22.89
2024-03-12T04:36:12.542Z,22.90
2024-03-12T04:37:12.578Z,22.90
2024-03-12T04:38:15.302Z,22.91
2024-03-12T04:39:12.543Z,22.90
2024-03-12T04:40:12.907Z,22.91
2024-03-12T04:41:12.559Z,22.91
2024-03-12T04:42:12.543Z,22.90
2024-03-12T04:43:12.609Z,22.91
2024-03-12T04:44:12.550Z,22.91
2024-03-12T04:45:12.556Z,22.90
2024-03-12T04:46:12.735Z,22.93
2024-03-12T04:47:12.565Z,22.90
2024-03-12T04:48:12.572Z,22.93
2024-03-12T04:49:12.613Z,22.87
2024-03-12T04:50:12.562Z,22.91
2024-03-12T04:51:12.603Z,22.91
2024-03-12T04:52:12.578Z,22.93
2024-03-12T04:53:12.571Z,22.93
2024-03-12T04:54:12.567Z,22.89
2024-03-12T04:55:12.595Z,22.90
2024-03-12T04:56:12.636Z,22.90
2024-03-12T04:57:12.570Z,22.91
2024-03-12T04:58:12.623Z,22.90
2024-03-12T04:59:12.588Z,22.90
2024-03-12T05:00:12.578Z,22.90
2024-03-12T05:01:12.690Z,22.90
2024-03-12T05:02:12.574Z,22.90
2024-03-12T05:03:12.591Z,22.90
2024-03-12T05:04:18.511Z,22.91
2024-03-12T05:05:13.610Z,22.90
2024-03-12T05:06:12.593Z,22.90
2024-03-12T05:07:12.598Z,22.91
2024-03-12T05:08:12.591Z,22.89
2024-03-12T05:09:12.586Z,22.91
2024-03-12T05:10:12.956Z,22.90
2024-03-12T05:11:12.646Z,22.87
2024-03-12T05:12:12.604Z,22.89
2024-03-12T05:13:12.624Z,22.91
2024-03-12T05:14:12.591Z,22.90
2024-03-12T05:15:12.593Z,22.90
2024-03-12T05:16:12.645Z,22.90
2024-03-12T05:17:12.605Z,22.89
2024-03-12T05:18:12.674Z,22.90
2024-03-12T05:19:13.117Z,22.90
2024-03-12T05:20:12.613Z,22.89
2024-03-12T05:21:12.664Z,22.90
2024-03-12T05:22:12.702Z,22.89
2024-03-12T05:23:12.616Z,22.90
2024-03-12T05:24:12.620Z,22.89
2024-03-12T05:25:12.659Z,22.90
2024-03-12T05:26:12.653Z,22.89
2024-03-12T05:27:12.625Z,22.91
2024-03-12T05:28:12.657Z,22.90
2024-03-12T05:29:12.632Z,22.91
2024-03-12T05:30:12.635Z,22.90
2024-03-12T05:31:12.701Z,22.89
2024-03-12T05:32:12.640Z,22.89
2024-03-12T05:33:12.743Z,22.89
2024-03-12T05:34:12.671Z,22.87
2024-03-12T05:35:12.650Z,22.90
2024-03-12T05:36:12.656Z,22.89
2024-03-12T05:37:12.723Z,22.90
2024-03-12T05:38:13.001Z,22.89
2024-03-12T05:39:12.659Z,22.87
2024-03-12T05:40:12.754Z,22.89
2024-03-12T05:41:12.692Z,22.90
2024-03-12T05:42:12.698Z,22.90
2024-03-12T05:43:12.735Z,22.89
2024-03-12T05:44:12.673Z,22.90
2024-03-12T05:45:12.675Z,22.86
2024-03-12T05:46:12.800Z,22.89
2024-03-12T05:47:12.677Z,22.87
2024-03-12T05:48:12.768Z,22.87
2024-03-12T05:49:12.755Z,22.89
2024-03-12T05:50:12.683Z,22.89
2024-03-12T05:51:12.694Z,22.91
2024-03-12T05:52:12.736Z,22.87
2024-03-12T05:53:12.786Z,22.89
2024-03-12T05:54:12.703Z,22.90
2024-03-12T05:55:12.738Z,22.87
2024-03-12T05:56:15.933Z,22.89
2024-03-12T05:57:13.705Z,22.87
2024-03-12T05:58:12.769Z,22.89
2024-03-12T05:59:12.701Z,22.89
2024-03-12T06:00:12.757Z,22.87
2024-03-12T06:01:12.843Z,22.89
2024-03-12T06:02:12.719Z,22.89
2024-03-12T06:03:12.703Z,22.90
2024-03-12T06:04:12.915Z,22.90
2024-03-12T06:05:12.706Z,22.89
2024-03-12T06:06:12.698Z,22.87
2024-03-12T06:07:12.803Z,22.89
2024-03-12T06:08:12.711Z,22.87
2024-03-12T06:09:12.708Z,22.89
2024-03-12T06:10:12.919Z,22.86
2024-03-12T06:11:12.730Z,22.89
2024-03-12T06:12:12.722Z,22.89
2024-03-12T06:13:12.748Z,22.89
2024-03-12T06:14:12.716Z,22.90
2024-03-12T06:15:12.719Z,22.90
2024-03-12T06:16:12.886Z,22.89
2024-03-12T06:17:12.714Z,22.87
2024-03-12T06:18:12.716Z,22.89
2024-03-12T06:19:12.774Z,22.90
2024-03-12T06:20:12.722Z,22.89
2024-03-12T06:21:12.719Z,22.89
2024-03-12T06:22:12.792Z,22.90
2024-03-12T06:23:12.722Z,22.90
2024-03-12T06:24:12.762Z,22.93
2024-03-12T06:25:12.837Z,22.93
2024-03-12T06:26:12.773Z,22.91
2024-03-12T06:27:12.748Z,22.91
2024-03-12T06:28:12.948Z,22.93
2024-03-12T06:29:12.734Z,22.93
2024-03-12T06:30:13.597Z,22.93
2024-03-12T06:31:12.963Z,22.94
2024-03-12T06:32:12.734Z,22.93
2024-03-12T06:33:13.386Z,22.93
2024-03-12T06:34:12.851Z,22.93
2024-03-12T06:35:12.738Z,22.93
2024-03-12T06:36:12.756Z,22.95
2024-03-12T06:37:12.936Z,22.94
2024-03-12T06:38:12.758Z,22.91
2024-03-12T06:39:12.745Z,22.91
2024-03-12T06:40:12.842Z,22.91
2024-03-12T06:41:13.688Z,22.93
2024-03-12T06:42:12.829Z,22.94
2024-03-12T06:43:12.901Z,22.94
2024-03-12T06:44:12.769Z,22.93
2024-03-12T06:45:12.792Z,22.94
2024-03-12T06:46:12.812Z,22.94
2024-03-12T06:47:12.770Z,22.95
2024-03-12T06:48:12.828Z,22.94
2024-03-12T06:49:12.841Z,22.94
2024-03-12T06:50:12.764Z,22.95
2024-03-12T06:51:12.768Z,22.93
2024-03-12T06:52:12.816Z,22.94
2024-03-12T06:53:12.787Z,22.93
2024-03-12T06:54:12.810Z,22.98
2024-03-12T06:55:16.548Z,22.95
2024-03-12T06:56:12.917Z,22.95
2024-03-12T06:57:12.831Z,22.95
2024-03-12T06:58:13.206Z,23.00
2024-03-12T06:59:12.840Z,22.98
2024-03-12T07:00:12.819Z,23.01
2024-03-12T07:01:13.637Z,23.04
2024-03-12T07:02:12.866Z,23.05
2024-03-12T07:03:12.814Z,23.05
2024-03-12T07:04:13.711Z,23.08
2024-03-12T07:05:13.706Z,23.10
2024-03-12T07:06:12.826Z,23.12
2024-03-12T07:07:12.892Z,23.12
2024-03-12T07:08:12.845Z,23.12
2024-03-12T07:09:15.479Z,23.15
2024-03-12T07:10:12.947Z,23.15
2024-03-12T07:11:12.856Z,23.18
2024-03-12T07:12:12.836Z,23.19
2024-03-12T07:13:12.980Z,23.18
2024-03-12T07:14:12.835Z,23.21
2024-03-12T07:15:12.838Z,23.22
2024-03-12T07:16:12.880Z,23.23
2024-03-12T07:17:12.845Z,23.25
2024-03-12T07:18:12.905Z,23.25
2024-03-12T07:19:12.923Z,23.29
2024-03-12T07:20:12.858Z,23.29
2024-03-12T07:21:12.937Z,23.26
2024-03-12T07:22:13.007Z,23.29
2024-03-12T07:23:15.701Z,23.32
2024-03-12T07:24:12.847Z,23.32
2024-03-12T07:25:12.853Z,23.32
2024-03-12T07:26:12.859Z,23.32
2024-03-12T07:27:12.860Z,23.35
2024-03-12T07:28:12.976Z,23.38
2024-03-12T07:29:12.871Z,23.38
2024-03-12T07:30:13.621Z,23.41
2024-03-12T07:31:12.878Z,23.41
2024-03-12T07:32:13.731Z,23.44
2024-03-12T07:33:12.911Z,23.48
2024-03-12T07:34:14.114Z,23.53
2024-03-12T07:35:12.884Z,23.62
2024-03-12T07:36:12.917Z,23.73
2024-03-12T07:37:14.002Z,23.83
2024-03-12T07:38:12.923Z,23.94
2024-03-12T07:39:12.937Z,24.04
2024-03-12T07:40:13.005Z,24.12
2024-03-12T07:41:12.922Z,24.18
2024-03-12T07:42:15.215Z,24.31
2024-03-12T07:43:13.327Z,24.40
2024-03-12T07:44:13.231Z,24.50
2024-03-12T07:45:13.302Z,24.49
2024-03-12T07:46:13.489Z,24.59
2024-03-12T07:47:13.423Z,24.76
2024-03-12T07:48:13.511Z,24.94
2024-03-12T07:49:13.592Z,25.09
2024-03-12T07:50:13.611Z,25.25
2024-03-12T07:51:13.652Z,25.35
2024-03-12T07:52:13.898Z,25.17
2024-03-12T07:53:13.885Z,25.07
2024-03-12T07:54:13.805Z,25.05
2024-03-12T07:55:13.946Z,25.15
2024-03-12T07:56:13.911Z,25.14
2024-03-12T07:57:13.952Z,24.97
2024-03-12T07:58:14.281Z,24.90
2024-03-12T07:59:14.079Z,24.84
2024-03-12T08:00:14.154Z,24.77
2024-03-12T08:01:14.323Z,24.78
2024-03-12T08:02:14.389Z,24.73
2024-03-12T08:03:15.158Z,24.70
2024-03-12T08:04:14.596Z,24.64
2024-03-12T08:05:14.520Z,24.60
2024-03-12T08:06:14.493Z,24.56
2024-03-12T08:07:14.805Z,24.55
2024-03-12T08:08:14.682Z,24.53
2024-03-12T08:09:14.684Z,24.52
2024-03-12T08:10:14.834Z,24.50
2024-03-12T08:11:14.845Z,24.57
2024-03-12T08:12:17.664Z,24.88
2024-03-12T08:13:14.936Z,24.74
2024-03-12T08:14:14.903Z,24.68
2024-03-12T08:15:14.950Z,24.66
2024-03-12T08:16:14.989Z,24.60
2024-03-12T08:17:14.896Z,24.60
2024-03-12T08:18:20.674Z,24.57
2024-03-12T08:19:15.930Z,24.52
2024-03-12T08:20:15.034Z,24.50
2024-03-12T08:21:14.893Z,24.44
2024-03-12T08:22:14.920Z,24.42
2024-03-12T08:23:14.904Z,24.40
2024-03-12T08:24:14.897Z,24.39
2024-03-12T08:25:15.875Z,24.38
2024-03-12T08:26:14.896Z,24.36
2024-03-12T08:27:14.966Z,24.33
2024-03-12T08:28:15.764Z,24.32
2024-03-12T08:29:15.068Z,24.32
2024-03-12T08:30:15.153Z,24.33
2024-03-12T08:31:24.771Z,24.36
2024-03-12T08:32:16.302Z,24.36
2024-03-12T08:33:15.397Z,24.42
2024-03-12T08:34:15.299Z,24.48
2024-03-12T08:35:15.254Z,24.44
2024-03-12T08:36:15.248Z,24.44
2024-03-12T08:37:15.355Z,24.40
2024-03-12T08:38:15.226Z,24.40
2024-03-12T08:39:15.240Z,24.38
2024-03-12T08:40:15.470Z,24.39
2024-03-12T08:41:15.349Z,24.38
2024-03-12T08:42:15.405Z,24.36
2024-03-12T08:43:15.541Z,24.32
2024-03-12T08:44:15.527Z,24.32
2024-03-12T08:45:15.571Z,24.35
2024-03-12T08:46:15.675Z,24.32
2024-03-12T08:47:15.765Z,24.24
2024-03-12T08:48:15.880Z,24.25
2024-03-12T08:49:15.956Z,24.25
2024-03-12T08:50:15.879Z,24.22
2024-03-12T08:51:15.892Z,24.24
2024-03-12T08:52:16.032Z,24.22
2024-03-12T08:53:16.509Z,24.24
2024-03-12T08:54:16.002Z,24.28
2024-03-12T08:55:16.756Z,24.38
2024-03-12T08:56:16.003Z,24.64
2024-03-12T08:57:16.658Z,24.57
2024-03-12T08:58:16.267Z,24.57
2024-03-12T08:59:16.201Z,24.53
2024-03-12T09:00:16.263Z,24.55
2024-03-12T09:01:16.724Z,24.55
2024-03-12T09:02:16.438Z,24.59
2024-03-12T09:03:16.477Z,24.70
2024-03-12T09:04:16.560Z,24.74
2024-03-12T09:05:16.604Z,24.68
2024-03-12T09:06:16.681Z,24.66
2024-03-12T09:07:16.805Z,24.67
2024-03-12T09:08:16.811Z,24.98
2024-03-12T09:09:16.871Z,24.90
2024-03-12T09:10:17.070Z,24.78
2024-03-12T09:11:17.073Z,24.73
2024-03-12T09:12:17.074Z,24.70
2024-03-12T09:13:17.133Z,24.66
2024-03-12T09:14:17.185Z,24.62
2024-03-12T09:15:17.338Z,24.55
2024-03-12T09:16:17.353Z,24.49
2024-03-12T09:17:17.311Z,24.46
2024-03-12T09:18:17.370Z,24.39
2024-03-12T09:19:17.365Z,24.33
2024-03-12T09:20:17.613Z,24.26
2024-03-12T09:21:17.403Z,24.22
2024-03-12T09:22:17.466Z,24.21
2024-03-12T09:23:17.492Z,24.24
2024-03-12T09:24:17.451Z,24.21
2024-03-12T09:25:19.690Z,24.19
2024-03-12T09:26:17.505Z,24.18
2024-03-12T09:27:17.537Z,24.16
2024-03-12T09:28:17.670Z,25.19
2024-03-12T09:29:17.636Z,24.84
2024-03-12T09:30:17.686Z,25.01
2024-03-12T09:31:17.793Z,25.01
2024-03-12T09:32:17.791Z,24.98
2024-03-12T09:33:17.947Z,24.97
2024-03-12T09:34:18.689Z,24.98
2024-03-12T09:35:17.961Z,24.91
2024-03-12T09:36:18.013Z,24.80
2024-03-12T09:37:18.864Z,24.70
2024-03-12T09:38:18.179Z,24.67
2024-03-12T09:39:18.231Z,24.64
2024-03-12T09:40:18.318Z,24.64
2024-03-12T09:41:18.319Z,24.64
2024-03-12T09:42:18.390Z,24.59
2024-03-12T09:43:18.461Z,24.52
2024-03-12T09:44:18.476Z,24.44
2024-03-12T09:45:18.772Z,24.40
2024-03-12T09:46:18.614Z,24.36
2024-03-12T09:47:18.546Z,24.31
2024-03-12T09:48:18.572Z,24.25
2024-03-12T09:49:18.601Z,24.19
2024-03-12T09:50:18.587Z,24.15
2024-03-12T09:51:18.609Z,24.11
2024-03-12T09:52:18.691Z,24.07
2024-03-12T09:53:18.809Z,24.04
2024-03-12T09:54:18.674Z,24.01
2024-03-12T09:55:18.750Z,24.00
2024-03-12T09:56:18.763Z,24.00
2024-03-12T09:57:19.254Z,23.96
2024-03-12T09:58:18.803Z,23.97
2024-03-12T09:59:18.781Z,23.96
2024-03-12T10:00:18.812Z,23.94
2024-03-12T10:01:18.950Z,23.90
2024-03-12T10:02:18.927Z,23.93
2024-03-12T10:03:18.900Z,23.88
2024-03-12T10:04:19.046Z,23.87
2024-03-12T10:05:18.963Z,23.87
2024-03-12T10:06:19.010Z,23.88
2024-03-12T10:07:19.049Z,23.84
2024-03-12T10:08:19.326Z,23.84
2024-03-12T10:09:19.109Z,23.81
2024-03-12T10:10:19.275Z,23.79
2024-03-12T10:11:19.197Z,23.79
2024-03-12T10:12:19.234Z,23.76
2024-03-12T10:13:19.568Z,23.72
2024-03-12T10:14:19.346Z,23.69
2024-03-12T10:15:19.412Z,23.67
2024-03-12T10:16:19.609Z,23.67
2024-03-12T10:17:19.588Z,23.67
2024-03-12T10:18:19.630Z,23.63
2024-03-12T10:19:19.818Z,23.62
2024-03-12T10:20:19.746Z,23.60
2024-03-12T10:21:19.801Z,23.62
2024-03-12T10:22:19.931Z,23.59
2024-03-12T10:23:19.964Z,23.57
2024-03-12T10:24:20.015Z,23.56
2024-03-12T10:25:20.127Z,23.53
2024-03-12T10:26:20.133Z,23.53
2024-03-12T10:27:20.181Z,23.50
2024-03-12T10:28:20.799Z,23.46
2024-03-12T10:29:20.307Z,23.45
2024-03-12T10:30:20.312Z,23.44
2024-03-12T10:31:20.343Z,23.41
2024-03-12T10:32:20.411Z,23.41
2024-03-12T10:33:20.395Z,23.39
2024-03-12T10:34:20.490Z,23.38
2024-03-12T10:35:20.442Z,23.38
2024-03-12T10:36:20.482Z,23.36
2024-03-12T10:37:20.574Z,23.39
2024-03-12T10:38:20.577Z,23.36
2024-03-12T10:39:20.630Z,23.35
2024-03-12T10:40:20.858Z,23.35
2024-03-12T10:41:22.628Z,23.35
2024-03-12T10:42:23.278Z,23.31
2024-03-12T10:43:20.940Z,23.32
2024-03-12T10:44:20.961Z,23.33
2024-03-12T10:45:20.976Z,23.31
2024-03-12T10:46:21.289Z,23.31
2024-03-12T10:47:21.015Z,23.29
2024-03-12T10:48:21.709Z,23.25
2024-03-12T10:49:21.067Z,23.26
2024-03-12T10:50:21.048Z,23.25
2024-03-12T10:51:21.112Z,23.25
2024-03-12T10:52:21.105Z,23.25
2024-03-12T10:53:21.089Z,23.29
2024-03-12T10:54:21.138Z,23.28
2024-03-12T10:55:21.208Z,23.29
2024-03-12T10:56:21.303Z,23.32
2024-03-12T10:57:21.277Z,23.31
2024-03-12T10:58:21.402Z,23.29
2024-03-12T10:59:21.384Z,23.29
2024-03-12T11:00:21.488Z,23.31
2024-03-12T11:01:21.834Z,23.28
2024-03-12T11:02:21.568Z,23.28
2024-03-12T11:03:21.506Z,23.28
2024-03-12T11:04:21.587Z,23.25
2024-03-12T11:05:21.596Z,23.28
2024-03-12T11:06:21.562Z,23.26
2024-03-12T11:07:22.318Z,23.23
2024-03-12T11:08:21.520Z,23.25
2024-03-12T11:09:21.521Z,23.23
2024-03-12T11:10:21.589Z,23.23
2024-03-12T11:11:22.348Z,23.25
2024-03-12T11:12:21.517Z,23.25
2024-03-12T11:13:21.640Z,23.26
2024-03-12T11:14:21.668Z,23.29
2024-03-12T11:15:21.519Z,23.29
2024-03-12T11:16:21.640Z,23.32
2024-03-12T11:17:21.543Z,23.32
2024-03-12T11:18:21.517Z,23.32
2024-03-12T11:19:21.692Z,23.29
2024-03-12T11:20:24.035Z,23.26
2024-03-12T11:21:21.603Z,23.28
2024-03-12T11:22:21.616Z,23.26
2024-03-12T11:23:21.599Z,23.25
2024-03-12T11:24:21.607Z,23.21
2024-03-12T11:25:21.671Z,23.18
2024-03-12T11:26:35.401Z,23.17
2024-03-12T11:27:22.613Z,23.15
2024-03-12T11:28:21.937Z,23.11
2024-03-12T11:29:21.634Z,23.12
2024-03-12T11:30:21.627Z,23.11
2024-03-12T11:31:21.681Z,23.08
2024-03-12T11:32:21.625Z,23.07
2024-03-12T11:33:21.635Z,23.10
2024-03-12T11:34:21.623Z,23.08
2024-03-12T11:35:21.632Z,23.10
2024-03-12T11:36:21.637Z,23.08
2024-03-12T11:37:21.672Z,23.08
2024-03-12T11:38:21.641Z,23.10
2024-03-12T11:39:21.632Z,23.05
2024-03-12T11:40:21.641Z,23.07
2024-03-12T11:41:21.646Z,23.05
2024-03-12T11:42:21.640Z,23.08
2024-03-12T11:43:21.645Z,23.08
2024-03-12T11:44:21.639Z,23.12
2024-03-12T11:45:21.665Z,23.12
2024-03-12T11:46:22.010Z,23.14
2024-03-12T11:47:21.637Z,23.17
2024-03-12T11:48:21.718Z,23.17
2024-03-12T11:49:21.645Z,23.21
2024-03-12T11:50:21.658Z,23.19
2024-03-12T11:51:21.641Z,23.19
2024-03-12T11:52:21.639Z,23.19
2024-03-12T11:53:21.641Z,23.18
2024-03-12T11:54:21.659Z,23.19
2024-03-12T11:55:21.662Z,23.18
2024-03-12T11:56:21.647Z,23.18
2024-03-12T11:57:21.664Z,23.17
2024-03-12T11:58:21.661Z,23.17
2024-03-12T11:59:21.664Z,23.15
2024-03-12T12:00:21.673Z,23.14
2024-03-12T12:01:21.849Z,23.15
2024-03-12T12:02:22.003Z,23.14
2024-03-12T12:03:21.666Z,23.11
2024-03-12T12:04:21.732Z,23.11
2024-03-12T12:05:21.670Z,23.10
2024-03-12T12:06:21.665Z,23.14
2024-03-12T12:07:21.742Z,23.11
2024-03-12T12:08:21.670Z,23.11
2024-03-12T12:09:21.689Z,23.11
2024-03-12T12:10:21.712Z,23.11
2024-03-12T12:11:21.726Z,23.10
2024-03-12T12:12:21.827Z,23.10
2024-03-12T12:13:21.726Z,23.08
2024-03-12T12:14:21.735Z,23.12
2024-03-12T12:15:21.760Z,23.11
2024-03-12T12:16:21.798Z,23.12
2024-03-12T12:17:21.793Z,23.14
2024-03-12T12:18:21.790Z,23.15
2024-03-12T12:19:25.554Z,23.15
2024-03-12T12:20:22.803Z,23.14
2024-03-12T12:21:21.798Z,23.14
2024-03-12T12:22:21.898Z,23.18
2024-03-12T12:23:21.816Z,23.18
2024-03-12T12:24:21.817Z,23.18
2024-03-12T12:25:21.863Z,23.18
2024-03-12T12:26:21.802Z,23.15
2024-03-12T12:27:21.810Z,23.14
2024-03-12T12:28:21.851Z,23.14
2024-03-12T12:29:21.824Z,23.12
2024-03-12T12:30:21.839Z,23.11
2024-03-12T12:31:21.860Z,23.12
2024-03-12T12:32:21.814Z,23.12
2024-03-12T12:33:21.842Z,23.15
2024-03-12T12:34:21.864Z,23.17
2024-03-12T12:35:22.317Z,23.14
2024-03-12T12:36:21.821Z,23.17
2024-03-12T12:37:22.010Z,23.21
2024-03-12T12:38:21.829Z,23.21
2024-03-12T12:39:21.820Z,23.22
2024-03-12T12:40:22.201Z,23.23
2024-03-12T12:41:21.828Z,23.25
2024-03-12T12:42:21.833Z,23.26
2024-03-12T12:43:21.901Z,23.29
2024-03-12T12:44:21.951Z,23.31
2024-03-12T12:45:22.107Z,23.32
2024-03-12T12:46:22.092Z,23.33
2024-03-12T12:47:22.126Z,23.33
2024-03-12T12:48:22.181Z,23.38
2024-03-12T12:49:23.035Z,23.36
2024-03-12T12:50:22.299Z,23.38
2024-03-12T12:51:22.360Z,23.41
2024-03-12T12:52:22.471Z,23.41
2024-03-12T12:53:22.476Z,23.41